Time;durP1;ratioP1;P1;durP2;ratioP2;P2;SDS_P1;SDS_P2;PMS_P1;PMS_P2;Temp;Humidity;BMP_temperature;BMP_pressure;BME280_temperature;BME280_humidity;BME280_pressure;Samples;Min_cycle;Max_cycle;Signal;HPM_P1;HPM_P2
2022/05/19 00:02:15;;;;;;;3.08;2.50;;;;;;;7.08;100.00;100222.08;1772230;79;21097;-57
2022/05/19 00:04:42;;;;;;;3.15;2.20;;;;;;;7.05;100.00;100226.06;1818712;78;21047;-57
2022/05/19 00:07:10;;;;;;;3.60;2.40;;;;;;;7.05;100.00;100219.30;1766110;80;21366;-58
2022/05/19 00:09:37;;;;;;;3.65;2.35;;;;;;;7.05;100.00;100220.65;1770390;80;20987;-57
2022/05/19 00:12:16;;;;;;;4.22;2.10;;;;;;;7.01;100.00;100217.59;1764148;80;21094;-57
2022/05/19 00:14:43;;;;;;;5.03;2.70;;;;;;;6.96;100.00;100220.73;1755188;79;21043;-57
2022/05/19 00:17:10;;;;;;;4.22;2.85;;;;;;;6.89;100.00;100229.50;1792526;79;21013;-57
2022/05/19 00:19:36;;;;;;;4.08;2.58;;;;;;;6.87;100.00;100229.72;1797721;79;21034;-57
2022/05/19 00:22:04;;;;;;;4.72;1.95;;;;;;;6.89;100.00;100229.50;1797269;78;21109;-57
2022/05/19 00:24:31;;;;;;;5.67;2.40;;;;;;;6.90;100.00;100229.28;1812787;78;21670;-57
2022/05/19 00:26:58;;;;;;;5.33;2.20;;;;;;;6.87;100.00;100239.75;1800748;78;21057;-58
2022/05/19 00:29:25;;;;;;;3.85;2.35;;;;;;;6.80;100.00;100231.72;1807121;79;20989;-57
2022/05/19 00:31:52;;;;;;;;;;;;;;;6.73;100.00;100231.57;1806048;79;21636;-57
2022/05/19 00:34:18;;;;;;;4.70;2.42;;;;;;;6.68;100.00;100234.97;1756875;80;20414;-57
2022/05/19 00:36:45;;;;;;;3.27;2.15;;;;;;;6.63;100.00;100238.06;1796502;78;21070;-57
2022/05/19 00:39:13;;;;;;;4.17;2.10;;;;;;;6.61;100.00;100238.84;1795852;79;21069;-57
2022/05/19 00:41:45;;;;;;;4.40;2.87;;;;;;;6.60;100.00;100241.23;1794922;77;21596;-57
2022/05/19 00:44:12;;;;;;;4.00;2.47;;;;;;;6.55;100.00;100231.67;1768675;79;21585;-57
2022/05/19 00:46:50;;;;;;;5.65;2.85;;;;;;;6.36;100.00;100222.81;1807172;78;21050;-57
2022/05/19 00:49:21;;;;;;;5.33;2.70;;;;;;;6.39;100.00;100231.80;1793559;78;21673;-58
2022/05/19 00:51:53;;;;;;;6.58;2.65;;;;;;;6.35;100.00;100240.91;1800270;79;21123;-58
2022/05/19 00:54:27;;;;;;;4.65;2.45;;;;;;;6.36;100.00;100240.39;1776498;79;21063;-58
2022/05/19 00:57:19;;;;;;;6.50;2.55;;;;;;;6.24;100.00;100216.55;1771818;79;21052;-58
2022/05/19 00:59:51;;;;;;;6.00;3.20;;;;;;;6.30;100.00;100242.16;1803557;78;21360;-58
2022/05/19 01:02:19;;;;;;;5.03;2.80;;;;;;;6.21;100.00;100242.70;1769315;79;21435;-59
2022/05/19 01:04:54;;;;;;;5.15;3.10;;;;;;;6.15;100.00;100241.75;1783518;79;21051;-59
2022/05/19 01:07:37;;;;;;;7.25;2.98;;;;;;;6.14;100.00;100246.85;1791269;79;21035;-58
2022/05/19 01:10:04;;;;;;;5.12;2.77;;;;;;;6.14;100.00;100241.45;1778833;79;21534;-58
2022/05/19 01:12:31;;;;;;;4.42;2.80;;;;;;;6.14;100.00;100245.50;1809484;78;21403;-58
2022/05/19 01:15:00;;;;;;;5.05;3.08;;;;;;;6.17;100.00;100245.03;1795039;79;20990;-58
2022/05/19 01:17:27;;;;;;;6.92;3.17;;;;;;;6.16;100.00;100238.53;1801188;79;21365;-59
2022/05/19 01:19:57;;;;;;;5.80;3.37;;;;;;;6.12;100.00;100247.63;1808745;78;21044;-58
2022/05/19 01:22:48;;;;;;;6.55;3.47;;;;;;;6.09;100.00;100242.69;1821882;78;20993;-58
2022/05/19 01:25:47;;;;;;;5.75;3.47;;;;;;;6.08;100.00;100238.32;1791943;79;21061;-58
2022/05/19 01:28:14;;;;;;;8.08;3.42;;;;;;;6.11;100.00;100242.44;1797843;79;21477;-58
2022/05/19 01:30:40;;;;;;;9.18;3.20;;;;;;;6.14;100.00;100238.74;1809730;78;21357;-58
2022/05/19 01:33:07;;;;;;;7.37;3.58;;;;;;;6.19;100.00;100243.47;1795711;78;20989;-58
2022/05/19 01:35:34;;;;;;;8.10;3.70;;;;;;;6.19;100.00;100242.11;1789678;79;21069;-58
2022/05/19 01:38:05;;;;;;;5.70;3.85;;;;;;;6.17;100.00;100236.92;1794881;79;21020;-59
2022/05/19 01:41:05;;;;;;;7.62;4.00;;;;;;;6.12;100.00;100243.57;1791285;78;21137;-58
2022/05/19 01:43:41;;;;;;;;;;;;;;;6.10;100.00;100238.91;1805513;78;20994;-58
2022/05/19 01:46:26;;;;;;;5.65;3.58;;;;;;;6.12;100.00;100241.39;1780206;79;20450;-58
2022/05/19 01:49:07;;;;;;;6.97;3.87;;;;;;;6.07;100.00;100239.36;1779904;79;21582;-58
2022/05/19 01:51:45;;;;;;;9.20;4.22;;;;;;;6.07;100.00;100246.64;1771800;80;21039;-58
2022/05/19 01:54:35;;;;;;;6.12;4.03;;;;;;;6.03;100.00;100243.58;1812063;78;21043;-58
2022/05/19 01:57:06;;;;;;;8.38;3.72;;;;;;;5.95;100.00;100251.48;1788422;79;21033;-57
2022/05/19 01:59:54;;;;;;;9.00;4.17;;;;;;;5.87;100.00;100249.12;1778678;79;21523;-57
2022/05/19 02:02:38;;;;;;;8.80;3.98;;;;;;;5.87;100.00;100254.52;1775683;80;21101;-57
2022/05/19 02:05:31;;;;;;;9.20;3.92;;;;;;;5.91;100.00;100254.89;1791940;79;22017;-58
2022/05/19 02:08:00;;;;;;;8.48;4.25;;;;;;;5.92;100.00;100250.59;1757690;80;21586;-58
2022/05/19 02:10:31;;;;;;;11.40;4.85;;;;;;;5.90;100.00;100253.23;1776129;78;21058;-58
2022/05/19 02:12:59;;;;;;;9.43;4.42;;;;;;;5.87;100.00;100259.09;1803882;78;20965;-58
2022/05/19 02:15:27;;;;;;;8.45;4.40;;;;;;;5.87;100.00;100261.80;1766467;80;21042;-58
2022/05/19 02:17:54;;;;;;;7.95;4.10;;;;;;;5.89;100.00;100259.68;1791187;79;20976;-58
2022/05/19 02:20:23;;;;;;;10.15;4.47;;;;;;;5.91;100.00;100267.87;1761594;80;21058;-58
2022/05/19 02:22:50;;;;;;;12.03;4.83;;;;;;;5.94;100.00;100267.94;1778478;79;21562;-58
2022/05/19 02:25:30;;;;;;;7.60;4.75;;;;;;;5.95;100.00;100269.59;1813655;78;21085;-58
2022/05/19 02:28:26;;;;;;;11.45;5.40;;;;;;;5.91;100.00;100274.63;1776520;80;20954;-58
2022/05/19 02:30:53;;;;;;;9.18;4.80;;;;;;;5.88;100.00;100272.91;1769124;80;21048;-58
2022/05/19 02:33:21;;;;;;;9.13;4.80;;;;;;;5.89;100.00;100271.84;1759490;79;20964;-59
2022/05/19 02:35:48;;;;;;;9.48;4.80;;;;;;;5.94;100.00;100267.94;1796557;79;21078;-59
2022/05/19 02:38:15;;;;;;;;;;;;;;;5.98;100.00;100275.38;1773650;80;21039;-59
2022/05/19 02:40:42;;;;;;;10.08;5.05;;;;;;;6.00;100.00;100267.84;1784144;79;20411;-58
2022/05/19 02:43:10;;;;;;;13.05;5.20;;;;;;;5.99;100.00;100279.70;1774969;79;20987;-58
2022/05/19 02:45:37;;;;;;;9.35;5.00;;;;;;;6.02;100.00;100281.14;1813201;77;21051;-58
2022/05/19 02:48:06;;;;;;;10.50;5.80;;;;;;;6.00;100.00;100275.13;1807610;79;21021;-58
2022/05/19 02:50:33;;;;;;;11.43;5.97;;;;;;;6.01;100.00;100283.54;1808792;79;20996;-58
2022/05/19 02:53:00;;;;;;;13.70;6.70;;;;;;;6.04;100.00;100280.89;1797155;79;21047;-58
2022/05/19 02:55:27;;;;;;;11.15;4.95;;;;;;;6.10;100.00;100279.97;1761470;79;21557;-58
2022/05/19 02:57:53;;;;;;;;;;;;;;;6.16;100.00;100285.83;1791777;79;20972;-58
2022/05/19 03:00:23;;;;;;;14.68;6.97;;;;;;;6.23;100.00;100290.62;1786858;79;20115;-58
2022/05/19 03:02:52;;;;;;;11.12;5.95;;;;;;;6.25;100.00;100291.20;1771095;79;21019;-58
2022/05/19 03:05:21;;;;;;;11.78;6.12;;;;;;;6.29;100.00;100298.63;1777264;79;21051;-58
2022/05/19 03:07:48;;;;;;;15.10;6.47;;;;;;;6.31;100.00;100291.63;1775618;79;21525;-58
2022/05/19 03:10:17;;;;;;;11.93;6.58;;;;;;;6.32;100.00;100287.34;1804116;78;21039;-58
2022/05/19 03:12:44;;;;;;;12.18;7.08;;;;;;;6.39;100.00;100292.13;1792072;79;21026;-58
2022/05/19 03:15:10;;;;;;;13.10;6.67;;;;;;;6.50;100.00;100293.22;1803622;79;21025;-58
2022/05/19 03:17:37;;;;;;;14.60;6.00;;;;;;;6.59;100.00;100295.07;1785835;78;20912;-59
2022/05/19 03:20:06;;;;;;;16.85;7.17;;;;;;;6.69;100.00;100296.67;1775753;78;21029;-58
2022/05/19 03:22:34;;;;;;;12.53;6.62;;;;;;;6.76;100.00;100298.22;1789607;79;21442;-58
2022/05/19 03:25:00;;;;;;;;;;;;;;;6.81;100.00;100294.79;1796313;79;21424;-58
2022/05/19 03:27:27;;;;;;;14.58;6.65;;;;;;;6.87;100.00;100300.64;1781848;79;20406;-58
2022/05/19 03:29:53;;;;;;;15.13;7.15;;;;;;;6.87;100.00;100299.29;1777247;79;21055;-58
2022/05/19 03:32:20;;;;;;;13.50;6.95;;;;;;;7.00;100.00;100300.41;1784062;78;21010;-59
2022/05/19 03:34:46;;;;;;;16.67;7.60;;;;;;;7.19;100.00;100299.77;1797964;79;20994;-58
2022/05/19 03:37:15;;;;;;;12.47;7.00;;;;;;;7.44;100.00;100302.50;1793537;78;21061;-58
2022/05/19 03:39:41;;;;;;;15.28;8.25;;;;;;;7.83;100.00;100306.86;1782636;78;21004;-59
2022/05/19 03:42:09;;;;;;;15.38;7.85;;;;;;;8.25;100.00;100308.77;1791113;79;21057;-59
2022/05/19 03:44:36;;;;;;;15.40;8.13;;;;;;;8.64;100.00;100311.14;1794756;78;21020;-59
2022/05/19 03:47:04;;;;;;;16.60;8.78;;;;;;;8.98;100.00;100298.68;1790586;79;21054;-59
2022/05/19 03:49:32;;;;;;;16.35;8.38;;;;;;;9.37;100.00;100294.63;1793749;78;20964;-58
2022/05/19 03:51:58;;;;;;;18.32;9.13;;;;;;;9.72;100.00;100291.03;1787173;79;21066;-59
2022/05/19 03:54:25;;;;;;;16.40;8.98;;;;;;;10.04;100.00;100292.51;1808150;78;21034;-59
2022/05/19 03:56:52;;;;;;;16.37;8.60;;;;;;;10.31;100.00;100289.83;1789783;78;21093;-59
2022/05/19 03:59:19;;;;;;;;;;;;;;;10.58;100.00;100293.38;1794951;78;21084;-60
2022/05/19 04:01:46;;;;;;;17.10;8.70;;;;;;;10.81;100.00;100292.20;1788577;78;20093;-59
2022/05/19 04:04:12;;;;;;;;;;;;;;;10.91;100.00;100286.30;1793795;78;21353;-58
2022/05/19 04:06:40;;;;;;;16.35;8.30;;;;;;;11.16;100.00;100289.75;1795397;78;20458;-59
2022/05/19 04:09:07;;;;;;;17.40;8.73;;;;;;;11.34;100.00;100295.31;1773958;79;21088;-59
2022/05/19 04:11:35;;;;;;;16.73;9.20;;;;;;;11.69;100.00;100294.72;1782683;79;21039;-59
2022/05/19 04:14:02;;;;;;;16.82;8.48;;;;;;;12.07;100.00;100289.44;1783108;80;21015;-59
2022/05/19 04:16:29;;;;;;;20.17;9.98;;;;;;;12.31;100.00;100293.33;1786161;79;21089;-58
2022/05/19 04:18:56;;;;;;;19.67;9.20;;;;;;;12.47;100.00;100293.61;1775886;79;21460;-59
2022/05/19 04:21:22;;;;;;;19.62;9.03;;;;;;;12.45;100.00;100292.53;1761116;80;21379;-58
2022/05/19 04:23:49;;;;;;;;;;;;;;;12.40;100.00;100293.05;1775694;80;21040;-58
2022/05/19 04:26:15;;;;;;;16.02;8.88;;;;;;;12.36;100.00;100293.34;1797783;79;20406;-58
2022/05/19 04:28:42;;;;;;;18.75;9.10;;;;;;;12.34;100.00;100290.88;1785294;80;21503;-58
2022/05/19 04:31:09;;;;;;;;;;;;;;;12.48;100.00;100287.07;1776308;79;21051;-57
2022/05/19 04:33:35;;;;;;;20.05;9.83;;;;;;;12.59;100.00;100305.66;1771733;80;20104;-58
2022/05/19 04:36:03;;;;;;;14.80;8.48;;;;;;;12.60;100.00;100299.94;1768041;80;21093;-57
2022/05/19 04:38:31;;;;;;;22.35;9.78;;;;;;;12.62;100.00;100303.20;1755204;79;21475;-58
2022/05/19 04:41:03;;;;;;;18.15;9.90;;;;;;;12.65;100.00;100304.56;1760565;79;21062;-58
2022/05/19 04:43:29;;;;;;;14.70;8.60;;;;;;;12.76;100.00;100302.94;1742013;79;20968;-58
2022/05/19 04:45:56;;;;;;;;;;;;;;;13.02;100.00;100308.41;1765148;79;21506;-58
2022/05/19 04:48:24;;;;;;;16.23;8.03;;;;;;;13.20;100.00;100307.34;1760124;80;20124;-59
2022/05/19 04:50:54;;;;;;;20.20;9.55;;;;;;;13.27;100.00;100299.69;1772064;79;21048;-58
2022/05/19 04:53:21;;;;;;;19.45;9.65;;;;;;;13.50;100.00;100307.03;1763409;80;21007;-56
2022/05/19 04:55:49;;;;;;;18.32;9.50;;;;;;;13.62;100.00;100301.52;1773518;79;21144;-58
2022/05/19 04:58:15;;;;;;;14.38;8.25;;;;;;;13.56;100.00;100305.37;1773629;79;21035;-59
2022/05/19 05:00:42;;;;;;;19.35;9.63;;;;;;;13.57;100.00;100308.36;1780041;80;21119;-58
2022/05/19 05:03:09;;;;;;;15.15;8.33;;;;;;;13.67;100.00;100313.00;1784661;80;21180;-59
2022/05/19 05:05:36;;;;;;;15.70;8.70;;;;;;;13.83;100.00;100306.37;1774967;79;21687;-58
2022/05/19 05:08:03;;;;;;;18.10;8.78;;;;;;;14.14;100.00;100311.16;1765227;79;21557;-58
2022/05/19 05:10:30;;;;;;;17.80;8.75;;;;;;;14.41;100.00;100306.95;1785569;79;21377;-58
2022/05/19 05:12:58;;;;;;;14.45;7.67;;;;;;;14.48;100.00;100309.38;1798571;79;21006;-58
2022/05/19 05:15:25;;;;;;;16.20;8.30;;;;;;;14.67;100.00;100309.50;1736330;80;21047;-58
2022/05/19 05:17:51;;;;;;;;;;;;;;;14.80;100.00;100301.48;1782016;79;21062;-58
2022/05/19 05:20:19;;;;;;;18.07;8.45;;;;;;;14.72;100.00;100305.37;1763967;80;20101;-59
2022/05/19 05:22:45;;;;;;;;;;;;;;;14.41;100.00;100305.59;1803561;79;20993;-59
2022/05/19 05:25:13;;;;;;;20.20;8.15;;;;;;;14.34;100.00;100303.71;1797886;79;20086;-58
2022/05/19 05:27:43;;;;;;;18.62;8.55;;;;;;;14.49;100.00;100299.24;1790290;79;21445;-58
2022/05/19 05:30:11;;;;;;;16.75;8.75;;;;;;;14.68;100.00;100300.19;1792219;79;21061;-58
2022/05/19 05:32:38;;;;;;;16.32;8.28;;;;;;;14.91;100.00;100299.48;1762723;80;20999;-58
2022/05/19 05:35:05;;;;;;;15.15;7.87;;;;;;;14.94;100.00;100307.12;1803569;77;20947;-58
2022/05/19 05:37:32;;;;;;;15.72;8.15;;;;;;;15.02;100.00;100301.00;1794962;79;20924;-59
2022/05/19 05:39:58;;;;;;;15.90;8.30;;;;;;;14.97;100.00;100306.55;1789446;80;21034;-58
2022/05/19 05:42:25;;;;;;;13.35;7.75;;;;;;;15.01;100.00;100306.80;1791530;80;20958;-58
2022/05/19 05:44:53;;;;;;;15.32;7.80;;;;;;;15.03;100.00;100310.88;1794264;80;20979;-59
2022/05/19 05:47:20;;;;;;;14.45;7.60;;;;;;;15.17;100.00;100308.28;1795306;80;20979;-59
2022/05/19 05:49:46;;;;;;;14.47;7.37;;;;;;;15.28;100.00;100313.39;1795033;80;20938;-58
2022/05/19 05:52:13;;;;;;;14.68;7.25;;;;;;;15.49;100.00;100320.90;1794130;80;21058;-59
2022/05/19 05:54:40;;;;;;;13.72;7.53;;;;;;;15.85;100.00;100315.84;1767355;81;21037;-58
2022/05/19 05:57:06;;;;;;;12.50;7.20;;;;;;;15.96;100.00;100311.87;1775295;80;21432;-58
2022/05/19 05:59:34;;;;;;;14.43;7.37;;;;;;;15.96;100.00;100315.98;1719993;81;21030;-58
2022/05/19 06:02:02;;;;;;;14.03;6.90;;;;;;;16.16;100.00;100311.60;1772187;80;21039;-59
2022/05/19 06:04:29;;;;;;;12.65;7.28;;;;;;;16.38;100.00;100317.36;1757099;80;21011;-59
2022/05/19 06:06:56;;;;;;;16.05;7.62;;;;;;;16.48;100.00;100322.44;1781078;80;21668;-59
2022/05/19 06:09:23;;;;;;;13.60;7.40;;;;;;;16.52;100.00;100321.55;1754308;79;21046;-59
2022/05/19 06:11:51;;;;;;;13.78;7.12;;;;;;;16.67;100.00;100328.80;1827827;78;21058;-57
2022/05/19 06:14:18;;;;;;;13.05;6.25;;;;;;;16.71;100.00;100327.09;1788655;78;21062;-59
2022/05/19 06:16:45;;;;;;;10.70;6.35;;;;;;;16.73;100.00;100328.97;1763457;80;21062;-57
2022/05/19 06:19:11;;;;;;;10.18;5.12;;;;;;;16.83;100.00;100332.94;1784839;80;21034;-57
2022/05/19 06:21:39;;;;;;;10.43;5.72;;;;;;;17.02;96.62;100339.80;1773538;80;21062;-57
2022/05/19 06:24:09;;;;;;;13.05;5.62;;;;;;;16.97;97.21;100335.19;1763758;80;21429;-57
2022/05/19 06:26:38;;;;;;;12.33;5.62;;;;;;;17.02;95.45;100328.80;1779844;80;21110;-57
2022/05/19 06:29:08;;;;;;;9.70;5.40;;;;;;;17.13;100.00;100331.09;1779589;79;21015;-58
2022/05/19 06:31:35;;;;;;;11.45;5.10;;;;;;;17.36;96.73;100334.25;1762932;80;21086;-57
2022/05/19 06:34:02;;;;;;;9.50;4.78;;;;;;;17.54;99.35;100333.11;1761930;80;21066;-58
2022/05/19 06:36:29;;;;;;;8.83;4.35;;;;;;;17.73;88.03;100331.96;1768394;80;21072;-58
2022/05/19 06:38:56;;;;;;;7.65;4.70;;;;;;;17.74;81.48;100335.53;1767750;80;20975;-58
2022/05/19 06:44:08;;;;;;;7.75;3.98;;;;;;;17.68;82.84;100326.53;1789978;80;20983;-59
2022/05/19 06:46:35;;;;;;;8.85;4.10;;;;;;;17.73;83.90;100329.77;1774365;80;21050;-60
2022/05/19 06:49:04;;;;;;;11.20;3.80;;;;;;;17.84;83.18;100326.52;1791475;79;21089;-60
2022/05/19 06:51:32;;;;;;;7.30;3.42;;;;;;;17.92;76.91;100320.86;1791600;80;21515;-61
2022/05/19 06:54:00;;;;;;;6.78;3.00;;;;;;;17.85;74.57;100328.13;1792022;79;21014;-60
2022/05/19 06:56:27;;;;;;;10.68;3.42;;;;;;;17.79;81.90;100321.09;1775019;80;21022;-59
2022/05/19 06:58:53;;;;;;;9.15;3.30;;;;;;;18.02;79.15;100318.45;1750823;80;21002;-59
2022/05/19 07:01:20;;;;;;;5.28;3.00;;;;;;;18.31;82.28;100317.00;1772043;80;21442;-60
2022/05/19 07:03:46;;;;;;;6.53;2.87;;;;;;;18.66;81.25;100323.69;1760683;81;20991;-62
2022/05/19 07:06:13;;;;;;;5.80;2.80;;;;;;;18.92;72.71;100321.71;1778723;80;21054;-61
2022/05/19 07:08:41;;;;;;;9.28;3.10;;;;;;;18.84;68.57;100321.33;1793706;78;21007;-60
2022/05/19 07:11:24;;;;;;;9.73;3.27;;;;;;;18.86;73.14;100327.34;1790842;80;21153;-59
2022/05/19 07:13:40;;;;;;;5.87;2.20;;;;;;;19.00;70.63;100319.00;1775286;80;21054;-59
2022/05/19 07:16:06;;;;;;;7.72;2.50;;;;;;;19.15;67.58;100315.05;1790682;79;21050;-59
2022/05/19 07:18:33;;;;;;;6.40;1.92;;;;;;;19.45;68.38;100315.66;1786627;79;21065;-59
2022/05/19 07:20:59;;;;;;;10.72;2.42;;;;;;;19.53;64.40;100323.75;1785063;79;21537;-60
2022/05/19 07:23:28;;;;;;;5.25;2.30;;;;;;;19.61;64.73;100322.98;1790479;79;21009;-59
2022/05/19 07:25:54;;;;;;;5.37;2.52;;;;;;;19.74;60.85;100304.11;1776991;79;21596;-58
2022/05/19 07:28:22;;;;;;;6.62;1.60;;;;;;;19.92;60.22;100322.95;1774538;79;21373;-59
2022/05/19 07:30:49;;;;;;;4.30;1.82;;;;;;;19.84;62.59;100307.40;1777162;79;21250;-58
2022/05/19 07:33:17;;;;;;;4.22;1.90;;;;;;;20.01;59.48;100329.34;1788607;79;21093;-61
2022/05/19 07:35:46;;;;;;;4.83;2.20;;;;;;;19.96;52.86;100310.94;1787168;78;21253;-61
2022/05/19 07:38:14;;;;;;;9.55;2.50;;;;;;;19.76;53.81;100307.38;1774952;79;21022;-60
2022/05/19 07:40:43;;;;;;;4.25;1.80;;;;;;;19.69;60.31;100303.70;1769781;81;21093;-60
2022/05/19 07:45:58;;;;;;;4.40;1.50;;;;;;;19.80;53.54;100280.75;1799668;79;21150;-59
2022/05/19 07:48:24;;;;;;;4.75;1.77;;;;;;;19.85;48.78;100295.78;1785413;79;21055;-61
2022/05/19 07:50:51;;;;;;;6.85;1.65;;;;;;;19.63;50.53;100309.66;1769951;81;21085;-58
2022/05/19 07:53:19;;;;;;;5.33;1.90;;;;;;;19.50;49.89;100297.59;1770072;81;20967;-60
2022/05/19 07:55:45;;;;;;;7.58;2.10;;;;;;;19.53;49.19;100303.03;1795737;79;21509;-59
2022/05/19 07:58:13;;;;;;;7.92;2.22;;;;;;;19.47;50.15;100293.27;1797270;79;20971;-58
2022/05/19 08:00:40;;;;;;;16.17;5.55;;;;;;;19.53;49.22;100291.98;1801650;79;21049;-59
2022/05/19 08:03:06;;;;;;;8.28;3.27;;;;;;;19.65;56.77;100291.66;1785880;79;20969;-59
2022/05/19 08:05:35;;;;;;;13.20;4.70;;;;;;;19.91;51.15;100295.88;1770895;79;21584;-59
2022/05/19 08:08:01;;;;;;;7.95;3.95;;;;;;;19.95;52.13;100295.48;1795588;79;21021;-61
2022/05/19 08:10:27;;;;;;;8.10;3.60;;;;;;;20.21;55.18;100301.09;1774934;79;21462;-58
2022/05/19 08:15:44;;;;;;;8.38;3.67;;;;;;;20.69;50.10;100293.52;1769795;81;21647;-59
2022/05/19 08:18:14;;;;;;;9.80;4.58;;;;;;;20.89;50.30;100298.98;1791170;80;21321;-59
2022/05/19 08:20:47;;;;;;;9.15;4.08;;;;;;;20.85;49.49;100290.53;1795703;80;21616;-58
2022/05/19 08:23:18;;;;;;;13.20;4.75;;;;;;;20.96;51.22;100293.77;1794020;80;20935;-58
2022/05/19 08:25:46;;;;;;;8.03;3.80;;;;;;;21.13;48.41;100286.04;1796840;80;21490;-63
2022/05/19 08:31:11;;;;;;;7.87;4.08;;;;;;;21.25;46.45;100284.23;1799260;78;23519;-57
2022/05/19 08:33:39;;;;;;;8.88;4.40;;;;;;;21.12;45.02;100283.84;1760561;81;20963;-59
2022/05/19 08:36:07;;;;;;;7.60;3.62;;;;;;;21.06;44.72;100281.55;1760697;80;21014;-59
2022/05/19 08:38:34;;;;;;;10.63;3.98;;;;;;;21.10;42.94;100279.75;1760714;81;21014;-60
2022/05/19 08:41:14;;;;;;;7.92;3.10;;;;;;;20.95;43.09;100271.38;1759292;80;21010;-60
2022/05/19 08:43:49;;;;;;;43.75;5.70;;;;;;;21.40;42.89;100259.92;1707297;81;20958;-58
2022/05/19 08:46:24;;;;;;;8.80;3.40;;;;;;;21.53;42.66;100263.86;1731315;81;21050;-57
2022/05/19 08:48:54;;;;;;;9.15;4.00;;;;;;;21.53;42.66;100263.86;1730950;80;20990;-57
2022/05/19 08:51:24;;;;;;;8.08;3.67;;;;;;;21.55;41.60;100273.21;1736670;81;21084;-58
2022/05/19 08:53:51;;;;;;;11.05;4.80;;;;;;;21.28;40.34;100260.61;1728943;83;20996;-58
2022/05/19 08:56:25;;;;;;;10.08;4.15;;;;;;;21.17;41.38;100273.98;1730341;81;21048;-59
2022/05/19 08:59:25;;;;;;;10.08;3.62;;;;;;;20.91;41.37;100273.17;1757231;81;20962;-58
2022/05/19 09:02:13;;;;;;;8.85;3.65;;;;;;;20.62;42.03;100271.07;1740496;80;21017;-59
2022/05/19 09:04:57;;;;;;;7.00;3.30;;;;;;;20.50;42.04;100264.01;1732107;81;21021;-59
2022/05/19 09:10:23;;;;;;;8.60;3.20;;;;;;;20.57;42.66;100251.07;1752755;80;21042;-59
2022/05/19 09:12:56;;;;;;;7.08;3.15;;;;;;;20.56;44.87;100268.80;1752852;81;20963;-59
2022/05/19 09:15:22;;;;;;;5.03;2.65;;;;;;;20.59;42.65;100263.99;1754897;80;21007;-58
2022/05/19 09:17:48;;;;;;;8.13;3.02;;;;;;;20.46;42.11;100263.03;1759323;81;20935;-59
2022/05/19 09:20:20;;;;;;;8.55;2.83;;;;;;;20.23;42.64;100258.16;1730261;81;21473;-58
2022/05/19 09:22:47;;;;;;;7.35;3.15;;;;;;;20.15;42.08;100252.08;1758047;80;20934;-58
2022/05/19 09:25:17;;;;;;;8.38;2.42;;;;;;;20.01;41.61;100250.58;1733793;80;21061;-59
2022/05/19 09:27:47;;;;;;;5.25;1.80;;;;;;;19.83;44.19;100255.25;1748705;80;20979;-58
2022/05/19 09:30:33;;;;;;;5.30;1.52;;;;;;;19.82;42.99;100245.32;1705109;81;21556;-56
2022/05/19 09:33:00;;;;;;;4.97;1.50;;;;;;;19.68;44.54;100250.15;1743956;82;20987;-58
2022/05/19 09:35:31;;;;;;;4.92;1.40;;;;;;;19.55;44.02;100253.28;1757905;80;21034;-58
2022/05/19 09:38:12;;;;;;;3.83;1.40;;;;;;;19.45;47.10;100248.02;1756166;80;21500;-58
2022/05/19 09:40:38;;;;;;;4.15;1.00;;;;;;;19.54;50.60;100250.27;1743122;80;21060;-58
2022/05/19 09:43:26;;;;;;;1.77;0.90;;;;;;;19.78;48.03;100249.86;1758477;81;21002;-58
2022/05/19 09:46:11;;;;;;;3.15;0.98;;;;;;;19.78;44.75;100239.63;1732567;81;21505;-57
2022/05/19 09:48:45;;;;;;;4.22;1.40;;;;;;;19.60;43.54;100230.21;1749159;80;20946;-56
2022/05/19 09:51:17;;;;;;;4.00;1.17;;;;;;;19.48;44.11;100238.30;1749100;81;21590;-58
2022/05/19 09:53:55;;;;;;;4.40;0.90;;;;;;;19.41;45.42;100237.39;1756463;81;20943;-57
2022/05/19 09:56:23;;;;;;;3.52;1.15;;;;;;;19.42;45.38;100237.61;1748623;81;21074;-58
2022/05/19 09:58:53;;;;;;;4.60;0.98;;;;;;;19.32;40.89;100235.10;1749001;80;20990;-57
2022/05/19 10:01:27;;;;;;;2.58;0.90;;;;;;;19.19;41.61;100230.50;1747621;80;21003;-59
2022/05/19 10:04:01;;;;;;;5.72;1.20;;;;;;;19.16;45.24;100220.92;1750850;80;20948;-59
2022/05/19 10:06:47;;;;;;;1.55;0.70;;;;;;;19.32;45.87;100233.16;1754255;80;21003;-56
2022/05/19 10:09:19;;;;;;;3.17;0.80;;;;;;;19.40;46.58;100224.67;1750057;81;21499;-56
2022/05/19 10:12:08;;;;;;;7.78;0.90;;;;;;;19.48;43.92;100214.84;1749701;81;20987;-56
2022/05/19 10:14:35;;;;;;;1.70;0.60;;;;;;;19.49;43.14;100218.64;1753352;80;21010;-56
2022/05/19 10:17:29;;;;;;;3.20;0.70;;;;;;;19.36;42.12;100221.73;1750636;80;21518;-57
2022/05/19 10:20:21;;;;;;;3.85;0.80;;;;;;;19.31;42.51;100205.86;1747492;81;20992;-57
2022/05/19 10:23:14;;;;;;;2.55;0.70;;;;;;;19.39;43.84;100204.53;1663142;82;20967;-56
2022/05/19 10:26:20;;;;;;;2.95;0.78;;;;;;;19.49;44.04;100203.45;1750558;81;21000;-57
2022/05/19 10:32:05;;;;;;;2.42;0.65;;;;;;;19.59;45.39;100202.38;1713458;83;21514;-57
2022/05/19 10:35:05;;;;;;;1.98;0.42;;;;;;;19.66;44.73;100194.44;1705322;83;21015;-58
2022/05/19 10:37:53;;;;;;;2.20;0.50;;;;;;;19.70;44.45;100197.59;1715860;82;21028;-59
2022/05/19 10:41:06;;;;;;;3.35;0.65;;;;;;;19.64;42.45;100200.83;1718272;83;21044;-57
2022/05/19 10:44:02;;;;;;;2.05;0.60;;;;;;;19.59;42.80;100200.39;1716324;83;21466;-58
2022/05/19 10:46:49;;;;;;;2.47;0.50;;;;;;;19.64;44.86;100200.83;1700827;83;21092;-57
2022/05/19 10:49:19;;;;;;;;;;;;;;;19.66;43.09;100197.20;1713364;83;20980;-58
2022/05/19 10:52:03;;;;;;;3.52;0.50;;;;;;;19.53;43.90;100193.97;1706347;83;20109;-58
2022/05/19 10:54:47;;;;;;;4.80;0.60;;;;;;;19.41;44.72;100186.84;1711568;83;21385;-57
2022/05/19 10:57:43;;;;;;;2.70;0.65;;;;;;;19.40;43.69;100186.03;1708606;83;21522;-57
2022/05/19 11:00:32;;;;;;;3.62;0.50;;;;;;;19.44;44.45;100173.81;1641926;86;21488;-58
2022/05/19 11:03:39;;;;;;;2.35;0.55;;;;;;;19.56;43.95;100178.95;1650654;86;20988;-57
2022/05/19 11:06:36;;;;;;;3.45;0.70;;;;;;;19.66;45.35;100170.95;1667302;84;21058;-57
2022/05/19 11:09:26;;;;;;;2.45;0.70;;;;;;;19.78;47.90;100174.70;1667468;85;21027;-57
2022/05/19 11:12:04;;;;;;;3.00;0.72;;;;;;;20.04;45.06;100165.64;1621089;86;21582;-57
2022/05/19 11:14:55;;;;;;;2.08;0.50;;;;;;;20.29;44.06;100169.02;1661800;86;20947;-57
2022/05/19 11:17:42;;;;;;;1.95;0.40;;;;;;;20.47;44.11;100172.02;1663177;86;21019;-57
2022/05/19 11:20:22;;;;;;;1.30;0.60;;;;;;;20.60;40.13;100157.76;1640090;86;21573;-57
2022/05/19 11:23:00;;;;;;;1.30;0.50;;;;;;;20.56;40.91;100167.84;1665780;85;21499;-58
2022/05/19 11:28:42;;;;;;;1.40;0.57;;;;;;;20.58;39.42;100153.14;1667675;85;21623;-56
2022/05/19 11:31:16;;;;;;;2.52;0.40;;;;;;;20.52;40.89;100148.89;1682906;83;21046;-58
2022/05/19 11:33:46;;;;;;;7.50;0.72;;;;;;;20.66;41.18;100149.52;1692347;84;21538;-58
2022/05/19 11:36:24;;;;;;;0.80;0.30;;;;;;;20.89;40.79;100137.11;1691386;85;21015;-57
2022/05/19 11:39:09;;;;;;;2.12;0.40;;;;;;;21.03;39.78;100145.20;1690153;85;21095;-58
2022/05/19 11:41:36;;;;;;;2.80;0.60;;;;;;;21.11;41.26;100140.24;1693179;84;21074;-58
2022/05/19 11:44:14;;;;;;;2.70;0.40;;;;;;;21.30;41.54;100142.02;1665292;85;21043;-59
2022/05/19 11:55:12;;;;;;;3.12;0.50;;;;;;;21.42;39.59;100140.74;1682708;85;21566;-57
2022/05/19 11:55:45;;;;;;;2.05;0.78;;;;;;;21.01;36.55;100144.13;1685233;84;21085;-58
2022/05/19 11:58:24;;;;;;;4.72;0.75;;;;;;;20.78;37.96;100144.14;1682805;84;21007;-61
2022/05/19 12:00:57;;;;;;;3.65;0.60;;;;;;;20.68;38.96;100145.87;1692404;84;21015;-59
2022/05/19 12:03:44;;;;;;;3.60;0.50;;;;;;;20.65;38.67;100143.17;1692931;85;20971;-58
2022/05/19 12:06:17;;;;;;;3.37;0.90;;;;;;;20.68;39.55;100141.72;1682970;83;21103;-58
2022/05/19 12:09:05;;;;;;;3.22;0.60;;;;;;;20.79;39.99;100123.63;1655985;84;21348;-59
2022/05/19 12:11:48;;;;;;;2.90;0.60;;;;;;;20.83;40.07;100117.69;1697931;83;21168;-57
2022/05/19 12:14:30;;;;;;;1.98;0.60;;;;;;;20.87;39.35;100128.91;1700729;83;20995;-57